Time;durP1;ratioP1;P1;durP2;ratioP2;P2;SDS_P1;SDS_P2;PMS_P1;PMS_P2;Temp;Humidity;BMP_temperature;BMP_pressure;BME280_temperature;BME280_humidity;BME280_pressure;Samples;Min_cycle;Max_cycle;Signal;HPM_P1;HPM_P2
2024/01/23 00:02:32;;;;;;;9.07;2.23;;;;;;;7.76;91.93;99766.59;7198315;40;20381;31
2024/01/23 00:07:52;;;;;;;10.07;2.10;;;;;;;7.80;91.96;99781.44;7287696;39;20240;31
2024/01/23 00:13:28;;;;;;;6.90;2.20;;;;;;;7.75;90.50;99768.41;7302243;39;20257;31
2024/01/23 00:18:48;;;;;;;12.70;2.20;;;;;;;7.78;90.24;99783.38;7324731;39;20275;31
2024/01/23 00:24:23;;;;;;;6.00;1.80;;;;;;;7.77;90.48;99781.72;7320743;39;20500;31
2024/01/23 00:29:56;;;;;;;11.33;2.30;;;;;;;7.74;90.58;99761.34;7257697;39;20556;31
2024/01/23 00:35:31;;;;;;;6.33;2.10;;;;;;;7.76;89.88;99769.28;7237734;40;20245;31
2024/01/23 00:40:48;;;;;;;7.73;1.80;;;;;;;7.80;89.82;99763.50;7252778;39;20493;31
2024/01/23 00:46:19;;;;;;;7.43;1.70;;;;;;;7.76;89.45;99774.63;7299365;39;20497;31
2024/01/23 00:51:54;;;;;;;6.43;1.90;;;;;;;7.75;89.83;99764.87;7301379;39;21279;31
2024/01/23 00:57:14;;;;;;;8.47;1.90;;;;;;;7.74;89.41;99790.88;7284907;39;20240;31
2024/01/23 01:02:47;;;;;;;7.10;1.90;;;;;;;7.65;89.11;99788.97;7296931;39;20256;31
2024/01/23 01:08:22;;;;;;;7.75;1.80;;;;;;;7.61;88.55;99809.87;7269349;39;20261;31
2024/01/23 01:13:54;;;;;;;7.28;1.83;;;;;;;7.63;88.13;99809.75;7304912;39;20681;31
2024/01/23 01:19:42;;;;;;;6.40;1.60;;;;;;;7.59;89.75;99824.41;7347321;39;21293;31
2024/01/23 01:30:28;;;;;;;4.00;1.60;;;;;;;7.54;89.47;99840.03;7274803;39;21128;31
2024/01/23 01:41:08;;;;;;;7.75;2.30;;;;;;;7.47;90.41;99830.81;7312773;39;20268;31
2024/01/23 01:51:47;;;;;;;8.10;2.25;;;;;;;7.54;89.09;99823.94;7349067;39;20275;31
2024/01/23 01:57:21;;;;;;;9.23;2.30;;;;;;;7.56;89.59;99830.88;7102180;39;20348;31
2024/01/23 02:02:55;;;;;;;11.27;3.13;;;;;;;7.54;90.23;99829.31;7343428;39;21028;31
2024/01/23 02:13:33;;;;;;;14.80;3.25;;;;;;;7.58;90.23;99833.44;7289359;39;20760;31
2024/01/23 02:24:11;;;;;;;10.17;2.60;;;;;;;7.60;89.34;99832.31;7316287;39;20310;31
2024/01/23 02:29:32;;;;;;;15.70;3.40;;;;;;;7.65;88.86;99854.22;7335700;39;20263;31
2024/01/23 02:40:12;;;;;;;13.30;3.00;;;;;;;7.67;89.08;99838.00;7357645;39;20749;31
2024/01/23 02:45:49;;;;;;;10.54;2.60;;;;;;;7.64;88.74;99831.06;7299938;39;20789;31
2024/01/23 02:51:10;;;;;;;13.45;3.20;;;;;;;7.65;88.73;99837.28;7304008;39;20237;31
2024/01/23 02:56:44;;;;;;;14.53;3.20;;;;;;;7.62;88.33;99842.91;7319225;39;20248;31
2024/01/23 03:02:48;;;;;;;9.30;2.70;;;;;;;7.60;89.39;99888.63;7325696;39;20276;31
2024/01/23 03:08:09;;;;;;;11.57;2.90;;;;;;;7.57;89.04;99878.19;7346440;39;21388;31
2024/01/23 03:18:47;;;;;;;12.00;2.85;;;;;;;7.53;88.48;99898.19;7345194;39;20264;31
2024/01/23 03:29:12;;;;;;;13.55;3.30;;;;;;;7.49;88.88;99912.00;7398648;39;20786;31
2024/01/23 03:34:45;;;;;;;8.10;3.10;;;;;;;7.48;88.69;99921.88;7381326;39;20462;31
2024/01/23 03:40:07;;;;;;;9.30;2.50;;;;;;;7.51;89.40;99932.31;7335494;39;20477;31
2024/01/23 03:45:42;;;;;;;6.45;2.45;;;;;;;7.46;88.47;99912.25;7357846;39;20258;31
2024/01/23 03:51:16;;;;;;;14.33;2.90;;;;;;;7.44;89.38;99919.56;7359975;39;20691;31
2024/01/23 03:56:52;;;;;;;11.90;2.60;;;;;;;7.46;88.70;99947.13;7292420;39;20257;31
2024/01/23 04:02:09;;;;;;;9.93;2.67;;;;;;;7.45;89.29;99948.97;7207342;40;20456;31
2024/01/23 04:07:47;;;;;;;9.57;2.83;;;;;;;7.44;88.87;99947.25;7187618;40;20246;31
2024/01/23 04:13:21;;;;;;;15.97;3.73;;;;;;;7.45;89.11;99972.25;7265146;40;20260;31
2024/01/23 04:18:56;;;;;;;10.03;2.47;;;;;;;7.45;89.55;99974.91;7235812;39;20379;31
2024/01/23 04:24:32;;;;;;;9.50;2.45;;;;;;;7.45;89.15;100001.75;7200346;40;20237;31
2024/01/23 04:29:52;;;;;;;12.87;2.97;;;;;;;7.46;89.34;100008.81;7208220;40;20254;31
2024/01/23 04:35:28;;;;;;;9.53;2.67;;;;;;;7.46;89.72;100006.97;7247830;40;20301;31
2024/01/23 04:41:03;;;;;;;12.77;2.40;;;;;;;7.45;88.85;100007.97;7270881;39;21101;31
2024/01/23 04:46:38;;;;;;;9.90;2.60;;;;;;;7.44;88.91;100008.06;7275794;39;20261;31
2024/01/23 04:52:13;;;;;;;9.50;2.50;;;;;;;7.45;88.23;100017.84;7301732;39;20266;31
2024/01/23 04:57:49;;;;;;;7.83;2.50;;;;;;;7.43;88.27;100030.50;7233168;40;20258;31
2024/01/23 05:03:10;;;;;;;12.60;2.50;;;;;;;7.42;88.67;100035.00;7233350;40;20260;31
2024/01/23 05:08:46;;;;;;;8.80;2.20;;;;;;;7.38;87.98;100038.94;7320340;39;20277;31
2024/01/23 05:14:20;;;;;;;9.33;2.60;;;;;;;7.32;87.85;100054.69;7299811;39;20245;31
2024/01/23 05:19:38;;;;;;;10.98;2.22;;;;;;;7.33;87.09;100078.66;7316857;39;20592;31
2024/01/23 05:24:58;;;;;;;8.90;2.25;;;;;;;7.29;87.59;100076.34;7302050;39;20256;31
2024/01/23 05:30:35;;;;;;;11.70;3.15;;;;;;;7.21;86.76;100090.41;7293116;39;20235;31
2024/01/23 05:36:07;;;;;;;8.03;2.07;;;;;;;7.21;87.71;100101.13;7330897;39;21864;31
2024/01/23 05:41:28;;;;;;;11.73;2.43;;;;;;;7.16;88.00;100119.41;7349482;39;20282;31
2024/01/23 05:47:04;;;;;;;11.43;2.43;;;;;;;7.09;87.58;100143.16;7316649;39;20248;31
2024/01/23 05:52:24;;;;;;;6.23;2.00;;;;;;;7.09;87.07;100159.25;7265527;40;20241;31
2024/01/23 05:57:41;;;;;;;4.83;2.00;;;;;;;7.07;87.22;100169.22;7299798;39;20641;31
2024/01/23 06:03:15;;;;;;;8.83;2.13;;;;;;;6.99;87.88;100176.16;7321799;39;20320;31
2024/01/23 06:08:35;;;;;;;8.27;2.70;;;;;;;6.98;87.90;100191.38;7332608;39;21322;31
2024/01/23 06:13:52;;;;;;;9.50;2.67;;;;;;;6.98;87.97;100210.16;7330159;39;21423;31
2024/01/23 06:19:28;;;;;;;8.15;2.40;;;;;;;6.91;87.90;100208.94;7330027;39;20287;31
2024/01/23 06:29:50;;;;;;;7.63;2.30;;;;;;;6.90;89.25;100242.06;7339484;39;20392;31
2024/01/23 06:35:22;;;;;;;10.00;2.35;;;;;;;6.88;88.49;100254.72;7368289;39;20506;31
2024/01/23 06:40:43;;;;;;;13.50;3.50;;;;;;;6.86;88.94;100259.34;7299573;39;20371;31
2024/01/23 06:46:17;;;;;;;7.08;2.32;;;;;;;6.86;88.21;100270.06;7320354;39;20243;31
2024/01/23 06:51:53;;;;;;;10.80;2.53;;;;;;;6.81;88.28;100293.66;7345985;39;21314;31
2024/01/23 06:57:28;;;;;;;7.00;2.25;;;;;;;6.80;87.81;100303.53;7307717;39;20248;31
2024/01/23 07:02:48;;;;;;;6.93;2.30;;;;;;;6.82;88.59;100310.59;7297120;40;20375;31
2024/01/23 07:08:24;;;;;;;9.25;2.20;;;;;;;6.77;88.18;100319.84;7305063;39;20264;31
2024/01/23 07:13:44;;;;;;;12.30;2.60;;;;;;;6.79;89.64;100319.72;7268100;39;20249;31
2024/01/23 07:19:05;;;;;;;9.45;2.80;;;;;;;6.76;89.42;100327.97;7335555;39;20259;31
2024/01/23 07:24:41;;;;;;;14.63;2.83;;;;;;;6.72;89.35;100356.81;7319335;39;20396;31
2024/01/23 07:30:16;;;;;;;7.93;2.37;;;;;;;6.74;89.59;100370.97;7261905;40;20340;31
2024/01/23 07:35:36;;;;;;;12.07;2.83;;;;;;;6.77;90.24;100377.94;7249979;39;20246;31
2024/01/23 07:41:12;;;;;;;10.70;2.45;;;;;;;6.79;90.45;100384.03;7271182;40;20240;31
2024/01/23 07:46:32;;;;;;;10.30;2.73;;;;;;;6.88;89.94;100403.94;7305792;39;20386;31
2024/01/23 07:52:04;;;;;;;8.80;2.80;;;;;;;6.91;90.94;100409.91;7332160;39;20264;31
2024/01/23 07:57:37;;;;;;;13.80;3.00;;;;;;;6.92;91.12;100416.13;7360600;39;20609;31
2024/01/23 08:02:57;;;;;;;10.60;2.83;;;;;;;6.84;91.62;100419.41;7299576;39;20259;31
2024/01/23 08:08:33;;;;;;;10.15;2.10;;;;;;;6.79;91.97;100427.78;7295279;39;20241;31
2024/01/23 08:14:06;;;;;;;5.80;2.10;;;;;;;6.83;92.44;100433.75;7218820;40;20239;31
2024/01/23 08:19:41;;;;;;;13.60;4.95;;;;;;;6.94;92.45;100435.62;7219070;40;20265;31
2024/01/23 08:25:01;;;;;;;15.67;2.87;;;;;;;7.00;92.25;100429.81;7255513;39;20510;31
2024/01/23 08:30:38;;;;;;;12.00;2.80;;;;;;;7.05;93.37;100428.53;7284874;39;20240;31
2024/01/23 08:36:00;;;;;;;12.35;3.30;;;;;;;7.14;92.25;100443.06;7318795;39;20426;31
2024/01/23 08:41:31;;;;;;;13.98;3.42;;;;;;;7.18;92.24;100447.22;7351118;39;20634;31
2024/01/23 08:47:05;;;;;;;11.40;3.35;;;;;;;7.20;91.08;100456.84;7357757;39;20322;31
2024/01/23 08:52:37;;;;;;;11.43;2.83;;;;;;;7.22;89.99;100454.94;7103048;39;20393;31
2024/01/23 08:58:12;;;;;;;15.00;3.43;;;;;;;7.31;89.97;100474.84;7295617;39;20389;31
2024/01/23 09:03:48;;;;;;;19.77;3.53;;;;;;;7.34;90.87;100481.78;7267867;40;20264;31
2024/01/23 09:09:09;;;;;;;15.80;3.33;;;;;;;7.42;88.64;100488.28;7243509;40;20426;31
2024/01/23 09:14:29;;;;;;;12.17;2.73;;;;;;;7.46;88.50;100505.03;7267576;40;20257;31
2024/01/23 09:20:04;;;;;;;12.20;3.03;;;;;;;7.47;88.60;100504.03;7307091;39;20260;31
2024/01/23 09:25:23;;;;;;;11.77;3.23;;;;;;;7.54;87.98;100513.34;7286728;39;20299;31
2024/01/23 09:30:41;;;;;;;12.40;2.85;;;;;;;7.60;87.68;100526.28;7312964;39;20248;31
2024/01/23 09:36:15;;;;;;;15.90;3.60;;;;;;;7.64;87.04;100525.94;7354622;39;20232;31
2024/01/23 09:41:51;;;;;;;11.05;3.45;;;;;;;7.70;86.73;100548.78;7331243;39;20320;31
2024/01/23 09:47:23;;;;;;;16.37;3.43;;;;;;;7.76;86.44;100568.94;7327539;39;21857;31
2024/01/23 09:52:58;;;;;;;14.50;2.75;;;;;;;7.81;85.32;100572.16;7357219;39;20389;31
2024/01/23 09:58:33;;;;;;;15.60;3.80;;;;;;;7.83;84.76;100571.03;7293258;39;20237;31
2024/01/23 10:04:08;;;;;;;9.85;2.80;;;;;;;7.86;85.32;100562.75;7255778;40;20258;31
2024/01/23 10:09:45;;;;;;;13.53;3.43;;;;;;;7.86;84.73;100565.44;7247677;40;20300;31
2024/01/23 10:15:22;;;;;;;13.00;3.10;;;;;;;7.79;83.70;100568.69;7237192;39;20246;31
2024/01/23 10:20:55;;;;;;;12.93;3.40;;;;;;;7.72;83.56;100571.84;7267518;39;20262;31
2024/01/23 10:26:32;;;;;;;13.70;3.40;;;;;;;7.67;83.34;100567.81;7293876;39;21360;31
2024/01/23 10:32:05;;;;;;;25.40;6.87;;;;;;;7.75;83.50;100545.75;7295125;39;20342;31
2024/01/23 10:37:40;;;;;;;15.53;3.27;;;;;;;7.81;84.36;100548.81;7256697;40;20249;31
2024/01/23 10:43:14;;;;;;;11.30;3.47;;;;;;;7.83;82.22;100528.09;7233356;40;20268;31
2024/01/23 10:48:49;;;;;;;15.20;3.50;;;;;;;7.84;80.89;100523.59;7235558;40;20269;31
2024/01/23 10:54:24;;;;;;;10.87;2.80;;;;;;;7.81;80.64;100523.84;7236427;40;20443;31
2024/01/23 11:00:00;;;;;;;13.13;2.90;;;;;;;7.80;83.67;100528.34;7254308;39;21339;31
2024/01/23 11:05:35;;;;;;;11.80;3.27;;;;;;;7.76;84.25;100534.06;7282432;39;20241;31
2024/01/23 11:11:10;;;;;;;12.60;3.15;;;;;;;7.70;85.29;100557.69;7247688;40;20308;31
2024/01/23 11:16:46;;;;;;;16.00;2.60;;;;;;;7.61;85.26;100554.84;7279325;39;20370;31
2024/01/23 11:22:06;;;;;;;15.50;3.50;;;;;;;7.66;87.04;100541.94;7275723;39;20452;31
2024/01/23 11:27:41;;;;;;;13.87;3.37;;;;;;;7.67;87.03;100541.84;7329689;39;20373;31
2024/01/23 11:33:38;;;;;;;18.50;3.85;;;;;;;7.76;87.71;100545.66;7315878;39;20360;31
2024/01/23 11:39:11;;;;;;;10.60;3.20;;;;;;;7.82;88.57;100544.31;7315101;39;20728;31
2024/01/23 11:44:46;;;;;;;13.95;3.40;;;;;;;7.80;87.81;100543.59;7311344;39;20237;31
2024/01/23 11:50:24;;;;;;;16.75;3.80;;;;;;;7.77;88.62;100544.66;7371640;39;20449;31
2024/01/23 11:55:59;;;;;;;12.80;3.43;;;;;;;7.78;88.08;100548.19;7287415;39;20483;31
2024/01/23 12:06:40;;;;;;;14.90;3.50;;;;;;;7.87;89.15;100539.44;7286575;40;21285;31
2024/01/23 12:17:17;;;;;;;15.00;3.30;;;;;;;7.94;88.51;100530.81;7346417;39;20263;31
2024/01/23 12:23:06;;;;;;;18.00;4.83;;;;;;;7.90;89.93;100523.97;7360462;39;20316;31
2024/01/23 12:28:42;;;;;;;9.90;3.50;;;;;;;7.81;89.83;100511.25;7280725;39;20241;31
2024/01/23 12:34:17;;;;;;;12.57;2.80;;;;;;;7.80;91.02;100522.97;7279536;39;20389;31
2024/01/23 12:39:53;;;;;;;14.67;3.33;;;;;;;7.81;90.40;100500.50;7211358;40;20261;31
2024/01/23 12:45:28;;;;;;;16.80;3.17;;;;;;;7.82;90.95;100490.63;7227232;40;20475;31
2024/01/23 12:56:06;;;;;;;18.45;4.35;;;;;;;7.79;90.63;100494.41;7241133;40;20409;31
2024/01/23 13:01:23;;;;;;;8.07;2.92;;;;;;;7.84;91.52;100480.66;7288663;39;20594;31
2024/01/23 13:06:40;;;;;;;16.70;3.53;;;;;;;7.81;91.27;100464.78;7352421;39;20269;31
2024/01/23 13:12:16;;;;;;;10.50;3.27;;;;;;;7.79;90.65;100456.84;7360420;39;20243;31
2024/01/23 13:17:51;;;;;;;13.60;3.85;;;;;;;7.80;91.97;100457.69;7376469;39;20282;31
2024/01/23 13:28:27;;;;;;;17.30;4.20;;;;;;;7.79;92.19;100459.53;7262152;40;20282;31
2024/01/23 13:34:02;;;;;;;14.63;3.60;;;;;;;7.81;92.32;100449.50;7282141;39;20287;31
2024/01/23 13:39:23;;;;;;;18.45;3.60;;;;;;;7.86;92.23;100463.44;7266812;39;20241;31
2024/01/23 13:45:01;;;;;;;16.37;4.20;;;;;;;7.85;92.18;100447.47;7302479;39;20241;31
2024/01/23 13:50:33;;;;;;;15.07;4.37;;;;;;;7.87;91.51;100442.81;7328294;39;21346;31
2024/01/23 13:56:05;;;;;;;17.77;4.07;;;;;;;7.89;92.51;100449.81;7377795;39;20549;31
2024/01/23 14:01:41;;;;;;;19.27;3.80;;;;;;;7.85;91.61;100448.31;7360108;39;20236;31
2024/01/23 14:07:16;;;;;;;15.20;4.13;;;;;;;7.89;91.17;100435.53;7279938;39;20245;31
2024/01/23 14:12:51;;;;;;;14.55;4.00;;;;;;;7.91;91.40;100426.34;7216306;40;20253;31
2024/01/23 14:18:27;;;;;;;14.93;3.10;;;;;;;7.92;91.12;100425.38;7178357;40;20393;31
2024/01/23 14:23:48;;;;;;;16.35;4.70;;;;;;;7.95;91.75;100446.63;7216008;40;20260;31
2024/01/23 14:29:23;;;;;;;19.65;3.45;;;;;;;7.96;90.41;100453.72;7278619;39;20397;31
2024/01/23 14:35:00;;;;;;;13.20;3.40;;;;;;;7.99;89.33;100450.78;7259764;40;20367;31
2024/01/23 14:40:35;;;;;;;16.07;4.00;;;;;;;8.02;88.71;100461.28;7266650;39;20392;31
2024/01/23 14:46:10;;;;;;;13.90;3.70;;;;;;;8.07;87.88;100456.41;7338490;39;21213;31
2024/01/23 14:51:48;;;;;;;17.80;3.70;;;;;;;8.05;88.35;100479.84;7297542;39;20408;31
2024/01/23 14:57:20;;;;;;;11.00;3.20;;;;;;;8.05;87.68;100479.84;7255356;40;20270;31
2024/01/23 15:02:41;;;;;;;17.90;3.40;;;;;;;8.09;88.36;100469.72;7226189;40;20245;31
2024/01/23 15:08:16;;;;;;;14.40;4.50;;;;;;;8.09;87.51;100464.34;7305135;39;20244;31
2024/01/23 15:13:51;;;;;;;16.20;3.80;;;;;;;8.12;87.01;100474.84;7314020;39;21381;31
2024/01/23 15:19:12;;;;;;;10.73;3.57;;;;;;;8.14;87.54;100475.59;7126658;39;21043;31
2024/01/23 15:29:53;;;;;;;13.90;4.10;;;;;;;8.16;87.02;100474.47;7312222;39;20847;31
2024/01/23 15:35:28;;;;;;;10.10;3.50;;;;;;;8.19;86.16;100464.47;7282752;39;20360;31
2024/01/23 15:41:00;;;;;;;18.25;4.60;;;;;;;8.15;85.76;100454.00;7319898;39;20257;31
2024/01/23 15:46:37;;;;;;;13.97;3.40;;;;;;;8.14;87.03;100438.00;7298705;39;20245;31
2024/01/23 15:51:59;;;;;;;9.70;3.20;;;;;;;8.18;86.43;100452.88;7239777;40;20328;31
2024/01/23 15:57:20;;;;;;;14.80;3.23;;;;;;;8.17;86.43;100437.75;7269626;39;20255;31
2024/01/23 16:02:55;;;;;;;16.10;4.00;;;;;;;8.13;86.27;100431.75;7249465;40;20245;31
2024/01/23 16:08:13;;;;;;;16.40;4.00;;;;;;;8.15;87.17;100432.50;7286831;39;20400;31
2024/01/23 16:13:33;;;;;;;14.37;4.10;;;;;;;8.13;86.63;100422.84;7308316;39;21395;31
2024/01/23 16:19:05;;;;;;;14.23;3.87;;;;;;;8.13;86.33;100423.69;7325713;39;20518;31
2024/01/23 16:24:26;;;;;;;17.77;4.17;;;;;;;8.15;86.76;100419.09;7351478;39;21203;31
2024/01/23 16:29:47;;;;;;;16.23;4.03;;;;;;;8.15;86.06;100405.66;7359752;39;20239;31
2024/01/23 16:35:24;;;;;;;22.43;5.97;;;;;;;8.12;86.26;100394.28;7379404;39;20269;31
2024/01/23 16:40:41;;;;;;;16.77;4.80;;;;;;;8.14;86.89;100397.72;7338832;39;20514;31
2024/01/23 16:45:58;;;;;;;15.60;4.30;;;;;;;8.10;87.84;100382.81;7352325;39;20247;31
2024/01/23 16:51:29;;;;;;;17.93;4.90;;;;;;;7.99;88.62;100367.53;7349246;39;20344;31
2024/01/23 16:56:50;;;;;;;15.00;4.85;;;;;;;7.90;88.97;100394.28;7255088;40;20242;31
2024/01/23 17:02:10;;;;;;;13.10;5.55;;;;;;;7.84;90.47;100403.66;7236795;40;20493;31
2024/01/23 17:07:45;;;;;;;14.43;5.10;;;;;;;7.77;91.03;100402.41;7252666;40;20383;31
2024/01/23 17:13:06;;;;;;;11.00;3.80;;;;;;;7.79;90.79;100397.81;7323211;39;20240;31
2024/01/23 17:18:41;;;;;;;11.15;5.00;;;;;;;7.82;91.22;100394.88;7342988;39;20489;31
2024/01/23 17:24:15;;;;;;;22.90;9.75;;;;;;;7.87;91.51;100402.56;7309284;39;21671;31
2024/01/23 17:29:50;;;;;;;14.70;6.50;;;;;;;7.87;91.88;100383.78;7329542;39;20263;31
2024/01/23 17:35:10;;;;;;;43.00;20.47;;;;;;;7.88;92.21;100382.81;7315563;39;20493;31
2024/01/23 17:40:47;;;;;;;15.05;5.80;;;;;;;7.84;92.53;100382.19;7354478;39;20345;31
2024/01/23 17:46:22;;;;;;;21.20;7.63;;;;;;;7.82;92.90;100376.06;7370020;39;20352;31
2024/01/23 17:51:57;;;;;;;28.17;12.53;;;;;;;7.83;93.33;100372.44;7337999;39;20260;31
2024/01/23 17:57:33;;;;;;;25.33;13.00;;;;;;;7.82;92.93;100343.00;7315545;39;20247;31
2024/01/23 18:03:08;;;;;;;13.75;6.40;;;;;;;7.81;92.60;100350.22;7277220;39;20237;31
2024/01/23 18:08:40;;;;;;;19.45;6.30;;;;;;;7.82;93.14;100343.88;7314643;39;20401;31
2024/01/23 18:14:16;;;;;;;14.50;4.20;;;;;;;7.82;93.01;100337.66;7357735;39;20255;31
2024/01/23 18:24:39;;;;;;;16.00;5.00;;;;;;;7.81;92.92;100317.19;7360199;39;21270;31
2024/01/23 18:30:14;;;;;;;13.07;3.63;;;;;;;7.76;92.79;100281.78;7372455;39;20265;31
2024/01/23 18:35:34;;;;;;;16.20;4.65;;;;;;;7.77;92.56;100256.69;7402507;39;20249;31
2024/01/23 18:40:52;;;;;;;13.63;4.00;;;;;;;7.73;93.02;100215.78;7398865;39;20394;31
2024/01/23 18:46:29;;;;;;;14.40;3.83;;;;;;;7.70;92.18;100262.53;7399676;39;20341;31
2024/01/23 18:51:49;;;;;;;15.53;4.43;;;;;;;7.72;93.23;100291.94;7321471;39;20241;31
2024/01/23 18:57:09;;;;;;;13.80;4.45;;;;;;;7.75;92.62;100280.06;7296001;39;20236;31
2024/01/23 19:02:45;;;;;;;9.60;4.20;;;;;;;7.70;92.76;100270.56;7318889;39;20459;31
2024/01/23 19:08:06;;;;;;;13.00;4.55;;;;;;;7.70;93.26;100238.38;7329405;39;20238;31
2024/01/23 19:13:26;;;;;;;15.45;4.50;;;;;;;7.70;92.87;100227.63;7364910;39;20380;31
2024/01/23 19:19:02;;;;;;;12.60;3.40;;;;;;;7.67;94.01;100243.13;7317867;39;20392;31
2024/01/23 19:24:37;;;;;;;10.00;3.07;;;;;;;7.67;92.96;100241.31;7286799;39;20377;31
2024/01/23 19:30:12;;;;;;;9.10;3.35;;;;;;;7.70;92.78;100224.09;7306632;39;20259;31
2024/01/23 19:35:48;;;;;;;9.00;3.15;;;;;;;7.72;93.40;100186.41;7277137;39;20367;31
2024/01/23 19:41:08;;;;;;;10.40;2.75;;;;;;;7.80;92.44;100162.50;7278074;39;20444;31
2024/01/23 19:46:28;;;;;;;8.00;2.70;;;;;;;7.83;92.15;100146.97;7298712;39;20377;31
2024/01/23 19:52:04;;;;;;;12.43;3.67;;;;;;;7.81;92.09;100135.50;7318597;39;20364;31
2024/01/23 19:57:20;;;;;;;8.73;3.20;;;;;;;7.85;92.08;100153.09;7333981;39;20247;31
2024/01/23 20:02:55;;;;;;;6.95;3.15;;;;;;;7.87;91.02;100124.28;7358970;39;20279;31
2024/01/23 20:08:31;;;;;;;9.73;3.53;;;;;;;7.90;91.00;100147.34;7319962;39;20259;31
2024/01/23 20:13:52;;;;;;;10.07;3.60;;;;;;;7.99;89.43;100162.66;7299792;39;20265;31
2024/01/23 20:19:27;;;;;;;13.80;5.00;;;;;;;8.01;89.27;100158.91;7305557;39;20271;31
2024/01/23 20:25:02;;;;;;;12.30;4.17;;;;;;;8.04;89.14;100145.22;7338656;39;21598;31
2024/01/23 20:30:37;;;;;;;13.97;4.70;;;;;;;8.05;88.61;100135.31;7323222;39;20278;31
2024/01/23 20:35:55;;;;;;;9.55;3.40;;;;;;;8.12;88.34;100121.25;7340843;39;21309;31
2024/01/23 20:41:34;;;;;;;9.70;2.37;;;;;;;8.19;87.79;100124.28;7292200;39;20240;31
2024/01/23 20:46:53;;;;;;;11.10;2.80;;;;;;;8.27;87.70;100134.38;7285510;40;20249;31
2024/01/23 20:52:13;;;;;;;9.40;2.70;;;;;;;8.27;87.78;100102.16;7255421;40;20268;31
2024/01/23 20:57:47;;;;;;;11.83;2.60;;;;;;;8.31;87.85;100096.44;7264424;39;20316;31
2024/01/23 21:03:07;;;;;;;4.23;1.80;;;;;;;8.37;87.39;100065.50;7317659;39;20240;31
2024/01/23 21:08:28;;;;;;;9.47;2.33;;;;;;;8.40;88.20;100078.66;7288645;39;20272;31
2024/01/23 21:14:02;;;;;;;10.35;2.75;;;;;;;8.40;88.54;100055.34;7279169;40;20241;31
2024/01/23 21:19:35;;;;;;;11.13;2.90;;;;;;;8.42;89.29;100087.47;7295829;39;20387;31
2024/01/23 21:24:54;;;;;;;10.30;2.80;;;;;;;8.45;90.09;100057.66;7319658;39;20279;31
2024/01/23 21:30:28;;;;;;;11.10;3.20;;;;;;;8.39;90.25;100053.63;7329704;39;20248;31
2024/01/23 21:36:03;;;;;;;11.10;2.60;;;;;;;8.41;90.60;100059.75;7339048;39;20247;31
2024/01/23 21:41:38;;;;;;;9.80;2.90;;;;;;;8.41;91.48;100062.44;7307960;39;20384;31
2024/01/23 21:47:15;;;;;;;9.37;2.90;;;;;;;8.45;91.28;100055.81;7267931;39;20293;31
2024/01/23 21:52:35;;;;;;;11.30;2.80;;;;;;;8.54;91.78;100095.31;7217034;40;20254;31
2024/01/23 21:57:55;;;;;;;13.17;2.90;;;;;;;8.59;91.20;100093.09;7222690;40;20219;31
2024/01/23 22:03:31;;;;;;;8.00;2.70;;;;;;;8.64;91.12;100027.34;7269215;39;20334;31
2024/01/23 22:09:05;;;;;;;9.10;2.47;;;;;;;8.64;91.94;100022.84;7122733;39;20333;31
2024/01/23 22:14:38;;;;;;;14.37;2.93;;;;;;;8.71;92.82;100007.00;7260664;40;20241;31
2024/01/23 22:20:15;;;;;;;6.63;2.27;;;;;;;8.75;93.71;100030.78;7230753;40;20253;31
2024/01/23 22:25:51;;;;;;;13.35;2.90;;;;;;;8.81;93.36;99983.72;7199251;40;20258;31
2024/01/23 22:31:26;;;;;;;9.70;3.00;;;;;;;8.84;94.01;100032.66;7219680;39;20285;31
2024/01/23 22:37:03;;;;;;;11.60;3.30;;;;;;;8.89;94.48;100018.81;7289463;39;20245;31
2024/01/23 22:42:23;;;;;;;6.70;2.05;;;;;;;8.99;95.09;100003.59;7238625;40;20241;31
2024/01/23 22:47:59;;;;;;;12.30;3.30;;;;;;;8.99;95.76;99998.22;7241347;40;20387;31
2024/01/23 22:53:34;;;;;;;9.83;3.07;;;;;;;8.96;96.34;99988.56;7207950;40;20245;31
2024/01/23 22:58:55;;;;;;;10.40;2.93;;;;;;;9.05;96.43;99997.66;7219763;40;20242;31
2024/01/23 23:04:15;;;;;;;8.40;2.90;;;;;;;9.14;96.72;99996.81;7247119;39;20273;31
2024/01/23 23:09:51;;;;;;;6.50;2.17;;;;;;;9.17;96.76;99993.84;7265078;39;20367;31
2024/01/23 23:15:27;;;;;;;12.35;3.15;;;;;;;9.17;96.63;100001.09;7250290;39;20330;31
2024/01/23 23:20:47;;;;;;;7.60;2.53;;;;;;;9.22;96.89;100009.56;7276887;39;20397;31
2024/01/23 23:26:23;;;;;;;8.27;2.73;;;;;;;9.23;97.10;99984.38;7271010;39;20314;31
2024/01/23 23:31:46;;;;;;;6.97;2.77;;;;;;;9.27;96.72;99969.66;7313285;39;20244;31
2024/01/23 23:37:06;;;;;;;7.50;2.77;;;;;;;9.31;97.14;99963.87;7325792;39;20243;31
2024/01/23 23:42:41;;;;;;;7.15;2.45;;;;;;;9.44;96.20;99958.22;7317809;39;20243;31
2024/01/23 23:48:02;;;;;;;4.25;1.75;;;;;;;9.51;96.26;99945.91;7331682;39;20402;31
2024/01/23 23:53:22;;;;;;;8.43;2.10;;;;;;;9.58;96.12;99919.25;7358760;39;20375;31
2024/01/23 23:58:56;;;;;;;10.93;2.33;;;;;;;9.58;95.60;99903.97;7365424;39;20252;31
